Time;durP1;ratioP1;P1;durP2;ratioP2;P2;SDS_P1;SDS_P2;PMS_P1;PMS_P2;Temp;Humidity;BMP_temperature;BMP_pressure;BME280_temperature;BME280_humidity;BME280_pressure;Samples;Min_cycle;Max_cycle;Signal;HPM_P1;HPM_P2
2022/09/12 00:01:54;;;;;;;738.63;657.47;;;17.40;99.90;;;;;;5049386;28;20702;-78
2022/09/12 00:04:21;;;;;;;731.67;648.95;;;17.40;99.90;;;;;;5053846;28;20219;-76
2022/09/12 00:06:48;;;;;;;733.65;651.83;;;17.40;99.90;;;;;;5054986;28;20195;-77
2022/09/12 00:09:15;;;;;;;728.85;645.83;;;17.40;99.90;;;;;;5051177;28;20203;-76
2022/09/12 00:11:43;;;;;;;730.72;645.60;;;17.40;99.90;;;;;;5059514;28;20235;-76
2022/09/12 00:14:13;;;;;;;741.45;660.45;;;17.40;99.90;;;;;;5048516;28;20674;-77
2022/09/12 00:16:43;;;;;;;738.95;657.97;;;17.30;99.90;;;;;;5038264;28;20211;-77
2022/09/12 00:19:11;;;;;;;743.60;662.28;;;17.30;99.90;;;;;;5046323;28;20199;-78
2022/09/12 00:21:40;;;;;;;724.92;636.72;;;17.30;99.90;;;;;;5047050;28;20196;-77
2022/09/12 00:24:08;;;;;;;734.38;652.28;;;17.30;99.90;;;;;;5050275;28;20211;-76
2022/09/12 00:26:35;;;;;;;740.00;658.83;;;17.30;99.90;;;;;;5048004;28;20203;-77
2022/09/12 00:29:02;;;;;;;746.85;665.50;;;17.30;99.90;;;;;;5049048;28;20206;-77
2022/09/12 00:31:28;;;;;;;734.00;651.80;;;17.30;99.90;;;;;;5051894;28;20201;-78
2022/09/12 00:33:59;;;;;;;731.03;648.28;;;17.30;99.90;;;;;;5053291;28;20237;-77
2022/09/12 00:36:28;;;;;;;724.30;635.90;;;17.30;99.90;;;;;;5052159;28;20201;-77
2022/09/12 00:38:55;;;;;;;737.45;653.40;;;17.30;99.90;;;;;;5056208;28;20199;-77
2022/09/12 00:41:24;;;;;;;735.38;651.60;;;17.30;99.90;;;;;;5053297;28;20662;-77
2022/09/12 00:43:53;;;;;;;731.80;647.47;;;17.20;99.90;;;;;;5052782;28;20574;-77
2022/09/12 00:46:29;;;;;;;744.20;662.53;;;17.20;99.90;;;;;;5050212;28;20190;-77
2022/09/12 00:49:01;;;;;;;726.33;635.05;;;17.20;99.90;;;;;;5045184;28;21616;-77
2022/09/12 00:51:31;;;;;;;729.45;643.72;;;17.20;99.90;;;;;;5042111;28;20187;-76
2022/09/12 00:53:59;;;;;;;733.38;651.00;;;17.20;99.90;;;;;;5049889;28;20543;-77
2022/09/12 00:56:27;;;;;;;729.88;644.40;;;17.20;99.90;;;;;;5049347;28;20198;-77
2022/09/12 00:58:57;;;;;;;736.08;653.40;;;17.20;99.90;;;;;;5049380;28;20210;-79
2022/09/12 01:01:24;;;;;;;725.30;633.33;;;17.20;99.90;;;;;;5045191;28;20206;-76
2022/09/12 01:03:51;;;;;;;728.20;641.53;;;17.20;99.90;;;;;;5051216;28;20230;-76
2022/09/12 01:06:25;;;;;;;731.75;649.63;;;17.10;99.90;;;;;;5051711;28;20207;-77
2022/09/12 01:08:54;;;;;;;739.33;658.22;;;17.10;99.90;;;;;;5054137;28;20187;-76
2022/09/12 01:11:21;;;;;;;729.10;638.53;;;17.10;99.90;;;;;;5047437;28;20214;-75
2022/09/12 01:13:50;;;;;;;739.38;658.10;;;17.10;99.90;;;;;;5055260;28;20554;-75
2022/09/12 01:16:17;;;;;;;728.95;645.45;;;17.10;99.90;;;;;;5051169;28;20596;-77
2022/09/12 01:19:00;;;;;;;733.30;650.08;;;17.10;99.90;;;;;;5051831;28;20191;-77
2022/09/12 01:21:37;;;;;;;726.40;629.42;;;17.10;99.90;;;;;;5047723;28;20658;-77
2022/09/12 01:24:37;;;;;;;726.40;641.10;;;17.10;99.90;;;;;;5048786;28;20215;-76
2022/09/12 01:27:18;;;;;;;726.13;634.33;;;17.10;99.90;;;;;;5046476;28;20218;-76
2022/09/12 01:30:20;;;;;;;729.60;642.83;;;17.10;99.90;;;;;;5051982;28;20203;-75
2022/09/12 01:33:15;;;;;;;724.75;626.65;;;17.00;99.90;;;;;;5047208;28;20198;-77
2022/09/12 01:35:49;;;;;;;729.20;640.83;;;17.00;99.90;;;;;;5019851;28;20195;-77
2022/09/12 01:38:24;;;;;;;728.53;637.40;;;17.00;99.90;;;;;;5045932;28;20202;-76
2022/09/12 01:40:58;;;;;;;729.72;640.58;;;17.00;99.90;;;;;;5055242;28;20201;-76
2022/09/12 01:43:32;;;;;;;728.35;636.45;;;17.00;99.90;;;;;;5053975;28;20199;-76
2022/09/12 01:46:06;;;;;;;728.50;639.17;;;17.00;99.90;;;;;;5051295;28;20681;-76
2022/09/12 01:48:39;;;;;;;731.70;646.75;;;17.00;99.90;;;;;;5051055;28;20199;-77
2022/09/12 01:51:11;;;;;;;728.25;638.10;;;17.00;99.90;;;;;;5052156;28;20214;-76
2022/09/12 01:53:42;;;;;;;728.75;636.35;;;17.00;99.90;;;;;;5054772;28;20218;-76
2022/09/12 01:56:13;;;;;;;726.47;638.45;;;17.00;99.90;;;;;;5052305;28;20191;-75
2022/09/12 01:58:44;;;;;;;735.10;652.35;;;16.90;99.90;;;;;;5047744;28;20203;-76
2022/09/12 02:01:15;;;;;;;724.78;633.92;;;16.90;99.90;;;;;;5044416;28;20204;-76
2022/09/12 02:03:47;;;;;;;725.47;631.65;;;16.90;99.90;;;;;;5043542;28;20356;-77
2022/09/12 02:06:19;;;;;;;728.22;638.30;;;16.90;99.90;;;;;;5050221;28;20514;-77
2022/09/12 02:08:51;;;;;;;727.80;637.08;;;16.90;99.90;;;;;;5054047;28;20244;-76
2022/09/12 02:11:19;;;;;;;725.25;626.85;;;16.90;99.90;;;;;;5054056;28;20257;-77
2022/09/12 02:13:52;;;;;;;722.20;629.03;;;16.90;99.90;;;;;;5052408;28;20727;-76
2022/09/12 02:16:23;;;;;;;733.25;635.40;;;16.90;99.90;;;;;;5049712;28;20201;-75
2022/09/12 02:18:56;;;;;;;728.38;632.88;;;16.90;99.90;;;;;;5054021;28;20209;-76
2022/09/12 02:21:25;;;;;;;728.90;627.83;;;16.80;99.90;;;;;;5044151;28;20210;-76
2022/09/12 02:23:58;;;;;;;724.47;623.50;;;16.80;99.90;;;;;;5042884;28;20222;-76
2022/09/12 02:26:31;;;;;;;728.08;636.85;;;16.80;99.90;;;;;;5046454;28;20414;-77
2022/09/12 02:28:58;;;;;;;727.42;635.10;;;16.80;99.90;;;;;;5059471;28;20682;-76
2022/09/12 02:31:29;;;;;;;727.20;636.78;;;16.80;99.90;;;;;;5049430;28;20201;-76
2022/09/12 02:34:09;;;;;;;730.20;637.92;;;16.80;99.90;;;;;;5047433;28;20279;-77
2022/09/12 02:36:55;;;;;;;733.33;644.05;;;16.80;99.90;;;;;;5046279;28;20194;-78
2022/09/12 02:39:22;;;;;;;721.80;613.33;;;16.80;99.90;;;;;;5058441;28;20203;-79
2022/09/12 02:41:52;;;;;;;727.58;632.33;;;16.80;99.90;;;;;;5072043;28;20198;-78
2022/09/12 02:44:19;;;;;;;726.00;624.72;;;16.80;99.90;;;;;;5057836;28;20237;-76
2022/09/12 02:46:51;;;;;;;727.28;635.83;;;16.80;99.90;;;;;;5046222;28;20213;-75
2022/09/12 02:49:19;;;;;;;724.95;622.85;;;16.80;99.90;;;;;;5049055;28;20199;-76
2022/09/12 02:51:47;;;;;;;723.35;610.78;;;16.70;99.90;;;;;;5043663;28;20222;-76
2022/09/12 02:54:16;;;;;;;724.95;617.28;;;16.70;99.90;;;;;;5048454;28;20195;-76
2022/09/12 02:56:44;;;;;;;733.38;646.03;;;16.70;99.90;;;;;;5041129;28;20197;-77
2022/09/12 02:59:15;;;;;;;726.15;630.38;;;16.70;99.90;;;;;;5045236;28;20215;-76
2022/09/12 03:01:56;;;;;;;726.72;629.58;;;16.70;99.90;;;;;;5044214;28;20202;-75
2022/09/12 03:04:46;;;;;;;728.45;632.97;;;16.70;99.90;;;;;;5040439;28;20695;-76
2022/09/12 03:07:20;;;;;;;723.95;616.40;;;16.70;99.90;;;;;;5055196;28;20190;-76
2022/09/12 03:09:53;;;;;;;727.03;625.10;;;16.70;99.90;;;;;;5059433;28;20592;-78
2022/09/12 03:12:40;;;;;;;722.47;607.08;;;16.70;99.90;;;;;;5045035;28;20195;-75
2022/09/12 03:15:28;;;;;;;729.17;636.38;;;16.70;99.90;;;;;;5046202;28;20195;-78
2022/09/12 03:18:06;;;;;;;724.42;609.92;;;16.60;99.90;;;;;;5046298;28;20202;-76
2022/09/12 03:20:47;;;;;;;723.10;616.28;;;16.60;99.90;;;;;;5041255;28;20195;-78
2022/09/12 03:23:24;;;;;;;720.40;605.22;;;16.60;99.90;;;;;;5047397;28;20197;-76
2022/09/12 03:25:56;;;;;;;728.15;620.42;;;16.60;99.90;;;;;;5042671;28;20222;-77
2022/09/12 03:28:23;;;;;;;728.90;616.47;;;16.60;99.90;;;;;;5050137;28;20201;-77
2022/09/12 03:30:53;;;;;;;724.72;609.63;;;16.60;99.90;;;;;;5038679;28;20540;-76
2022/09/12 03:33:21;;;;;;;726.50;626.50;;;16.60;99.90;;;;;;5051844;28;20240;-77
2022/09/12 03:35:50;;;;;;;728.47;637.42;;;16.60;99.90;;;;;;5051602;28;20201;-76
2022/09/12 03:38:17;;;;;;;728.85;634.67;;;16.60;99.90;;;;;;5047579;28;20238;-75
2022/09/12 03:40:45;;;;;;;725.03;622.33;;;16.50;99.90;;;;;;5044268;28;20276;-76
2022/09/12 03:43:12;;;;;;;727.55;629.03;;;16.50;99.90;;;;;;5052719;28;20193;-76
2022/09/12 03:45:39;;;;;;;727.00;630.63;;;16.50;99.90;;;;;;5050532;28;20609;-75
2022/09/12 03:48:06;;;;;;;725.55;625.03;;;16.50;99.90;;;;;;5045697;28;20650;-76
2022/09/12 03:50:33;;;;;;;717.45;581.67;;;16.50;99.90;;;;;;5047860;28;20293;-77
2022/09/12 03:53:01;;;;;;;719.30;589.03;;;16.50;99.90;;;;;;5055078;28;20202;-76
2022/09/12 03:55:28;;;;;;;725.60;623.70;;;16.50;99.90;;;;;;5040679;28;20207;-76
2022/09/12 03:57:55;;;;;;;728.35;630.38;;;16.50;99.90;;;;;;5049666;28;20399;-75
2022/09/12 04:00:22;;;;;;;724.92;616.72;;;16.50;99.90;;;;;;5049033;28;20209;-75
2022/09/12 04:02:54;;;;;;;728.90;629.72;;;16.50;99.90;;;;;;5041073;28;20642;-75
2022/09/12 04:05:21;;;;;;;722.15;607.63;;;16.50;99.90;;;;;;5051455;28;20231;-76
2022/09/12 04:07:48;;;;;;;727.47;625.75;;;16.50;99.90;;;;;;5053414;28;20207;-76
2022/09/12 04:10:16;;;;;;;725.97;615.65;;;16.50;99.90;;;;;;5058784;28;21463;-79
2022/09/12 04:12:43;;;;;;;726.00;618.45;;;16.50;99.90;;;;;;5049990;28;20195;-76
2022/09/12 04:15:10;;;;;;;725.75;617.75;;;16.40;99.90;;;;;;5044439;28;20194;-76
2022/09/12 04:17:37;;;;;;;725.47;610.42;;;16.40;99.90;;;;;;5046515;28;20195;-76
2022/09/12 04:20:04;;;;;;;722.78;617.08;;;16.40;99.90;;;;;;5048187;28;20543;-79
2022/09/12 04:22:32;;;;;;;723.60;612.38;;;16.40;99.90;;;;;;5050128;28;20547;-75
2022/09/12 04:24:58;;;;;;;720.83;611.03;;;16.40;99.90;;;;;;5039924;28;20309;-75
2022/09/12 04:27:26;;;;;;;725.53;625.28;;;16.40;99.90;;;;;;5042541;28;20693;-76
2022/09/12 04:29:54;;;;;;;728.17;628.97;;;16.40;99.90;;;;;;5051437;28;20576;-75
2022/09/12 04:32:21;;;;;;;725.83;622.05;;;16.40;99.90;;;;;;5039596;28;20563;-79
2022/09/12 04:34:48;;;;;;;723.80;614.70;;;16.40;99.90;;;;;;5052685;28;20685;-75
2022/09/12 04:37:15;;;;;;;717.80;590.08;;;16.40;99.90;;;;;;5048426;28;20201;-76
2022/09/12 04:39:42;;;;;;;718.22;592.55;;;16.40;99.90;;;;;;5052945;28;20249;-76
2022/09/12 04:42:09;;;;;;;724.80;615.95;;;16.30;99.90;;;;;;5064356;28;20201;-77
2022/09/12 04:44:37;;;;;;;721.05;601.35;;;16.30;99.90;;;;;;5052155;28;20217;-76
2022/09/12 04:47:04;;;;;;;722.67;617.97;;;16.40;99.90;;;;;;5049255;28;20203;-76
2022/09/12 04:49:31;;;;;;;725.40;622.15;;;16.30;99.90;;;;;;5052097;28;20202;-76
2022/09/12 04:51:58;;;;;;;720.40;604.50;;;16.30;99.90;;;;;;5047181;28;20203;-76
2022/09/12 04:54:25;;;;;;;723.90;607.80;;;16.30;99.90;;;;;;5053490;28;20791;-78
2022/09/12 04:56:53;;;;;;;723.80;613.75;;;16.30;99.90;;;;;;5051427;28;20206;-77
2022/09/12 04:59:21;;;;;;;725.13;607.47;;;16.30;99.90;;;;;;5045445;28;20197;-76
2022/09/12 05:01:50;;;;;;;722.92;614.30;;;16.30;99.90;;;;;;5045441;28;20209;-77
2022/09/12 05:04:17;;;;;;;720.55;606.10;;;16.30;99.90;;;;;;5049714;28;20708;-76
2022/09/12 05:06:45;;;;;;;719.15;602.00;;;16.30;99.90;;;;;;5049249;28;20207;-76
2022/09/12 05:09:14;;;;;;;721.88;612.53;;;16.30;99.90;;;;;;5053304;28;20190;-76
2022/09/12 05:11:43;;;;;;;715.70;587.03;;;16.30;99.90;;;;;;5053484;28;20691;-76
2022/09/12 05:14:10;;;;;;;721.50;617.85;;;16.30;99.90;;;;;;5051463;28;20199;-76
2022/09/12 05:16:37;;;;;;;722.53;609.20;;;16.30;99.90;;;;;;5051091;28;20202;-77
2022/09/12 05:19:05;;;;;;;719.55;595.05;;;16.30;99.90;;;;;;5050688;28;20203;-76
2022/09/12 05:21:32;;;;;;;719.92;602.13;;;16.30;99.90;;;;;;5046870;28;20230;-76
2022/09/12 05:23:59;;;;;;;723.00;604.13;;;16.30;99.90;;;;;;5049607;28;20194;-75
2022/09/12 05:26:26;;;;;;;714.67;576.90;;;16.20;99.90;;;;;;5049219;28;20257;-76
2022/09/12 05:28:54;;;;;;;726.08;620.83;;;16.20;99.90;;;;;;5050848;28;20203;-76
2022/09/12 05:31:23;;;;;;;722.55;609.10;;;16.20;99.90;;;;;;5049680;28;20194;-77
2022/09/12 05:33:52;;;;;;;725.92;621.38;;;16.30;99.90;;;;;;5046744;28;20270;-76
2022/09/12 05:36:22;;;;;;;719.35;594.30;;;16.30;99.90;;;;;;5041184;28;20235;-80
2022/09/12 05:38:49;;;;;;;728.10;623.28;;;16.20;99.90;;;;;;5051323;28;20660;-76
2022/09/12 05:41:18;;;;;;;720.10;606.65;;;16.30;99.90;;;;;;5051209;28;20206;-76
2022/09/12 05:43:45;;;;;;;713.45;577.28;;;16.30;99.90;;;;;;5055392;28;20206;-76
2022/09/12 05:46:14;;;;;;;719.15;594.40;;;16.30;99.90;;;;;;5047364;28;20210;-77
2022/09/12 05:48:42;;;;;;;718.92;609.83;;;16.30;99.90;;;;;;5048377;28;20206;-75
2022/09/12 05:51:12;;;;;;;719.08;599.28;;;16.30;99.90;;;;;;5049908;28;20201;-76
2022/09/12 05:53:41;;;;;;;724.08;607.95;;;16.30;99.90;;;;;;5047027;28;20579;-77
2022/09/12 05:56:09;;;;;;;720.95;605.08;;;16.40;99.90;;;;;;5053483;28;20554;-76
2022/09/12 05:58:39;;;;;;;721.95;606.20;;;16.50;99.90;;;;;;5055521;28;20209;-77
2022/09/12 06:01:07;;;;;;;724.95;623.60;;;16.60;99.90;;;;;;5045707;28;20201;-76
2022/09/12 06:03:36;;;;;;;724.60;632.75;;;16.70;99.90;;;;;;5055053;28;20226;-76
2022/09/12 06:06:04;;;;;;;727.30;636.53;;;16.80;99.90;;;;;;5049866;28;20711;-77
2022/09/12 06:08:31;;;;;;;730.22;642.25;;;17.00;99.90;;;;;;5043665;28;20202;-76
2022/09/12 06:11:01;;;;;;;734.30;649.03;;;17.10;99.90;;;;;;5053805;28;20195;-77
2022/09/12 06:13:28;;;;;;;736.60;653.65;;;17.20;99.90;;;;;;5060677;28;20286;-77
2022/09/12 06:15:55;;;;;;;744.00;661.58;;;17.40;99.90;;;;;;5046236;28;20543;-78
2022/09/12 06:18:21;;;;;;;741.63;658.83;;;17.50;99.90;;;;;;5042781;28;20200;-77
2022/09/12 06:20:48;;;;;;;751.55;669.67;;;17.60;99.90;;;;;;5052164;28;20206;-76
2022/09/12 06:23:15;;;;;;;734.85;652.50;;;17.70;99.90;;;;;;5047936;28;20191;-76
2022/09/12 06:25:47;;;;;;;769.30;687.28;;;17.80;99.90;;;;;;5056192;28;20226;-76
2022/09/12 06:28:15;;;;;;;760.22;678.15;;;17.80;99.90;;;;;;5047757;28;20716;-77
2022/09/12 06:30:42;;;;;;;776.35;694.05;;;17.90;99.90;;;;;;5044658;28;20650;-77
2022/09/12 06:33:09;;;;;;;785.35;702.88;;;18.00;99.90;;;;;;5049800;28;20203;-78
2022/09/12 06:35:37;;;;;;;792.25;709.75;;;18.10;99.90;;;;;;5050521;28;20202;-76
2022/09/12 06:38:04;;;;;;;789.00;706.42;;;18.20;99.90;;;;;;5040344;28;20196;-76
2022/09/12 06:40:32;;;;;;;815.88;732.58;;;18.30;99.90;;;;;;5042999;28;20705;-76
2022/09/12 06:42:59;;;;;;;807.95;725.05;;;18.40;99.90;;;;;;5045992;28;20194;-76
2022/09/12 06:45:27;;;;;;;806.90;723.80;;;18.50;99.90;;;;;;5047144;28;20736;-77
2022/09/12 06:47:55;;;;;;;827.60;744.00;;;18.60;99.90;;;;;;5047719;28;20214;-77
2022/09/12 06:50:22;;;;;;;813.00;729.88;;;18.60;99.90;;;;;;5050445;28;20257;-77
2022/09/12 06:52:50;;;;;;;817.50;734.30;;;18.70;99.90;;;;;;5041239;28;20222;-77
2022/09/12 06:55:17;;;;;;;836.33;752.63;;;18.70;99.90;;;;;;5048422;28;20195;-77
2022/09/12 06:57:43;;;;;;;812.80;729.63;;;18.70;99.90;;;;;;5048483;28;20206;-78
2022/09/12 07:00:11;;;;;;;832.75;749.22;;;18.70;99.90;;;;;;5041191;28;20917;-77
2022/09/12 07:02:40;;;;;;;831.90;748.10;;;18.80;99.90;;;;;;5046573;28;20289;-78
2022/09/12 07:05:07;;;;;;;835.40;751.80;;;18.80;99.90;;;;;;5050211;28;20195;-77
2022/09/12 07:07:34;;;;;;;838.92;755.40;;;18.90;99.90;;;;;;5044698;28;20625;-77
2022/09/12 07:10:02;;;;;;;839.30;755.60;;;19.00;99.90;;;;;;5043551;28;20199;-79
2022/09/12 07:12:28;;;;;;;850.88;766.78;;;19.00;99.90;;;;;;5048344;28;20199;-77
2022/09/12 07:14:55;;;;;;;843.05;759.45;;;19.00;99.90;;;;;;5041146;28;20302;-81
2022/09/12 07:17:22;;;;;;;847.85;763.83;;;18.90;99.90;;;;;;5053498;28;20554;-77
2022/09/12 07:19:50;;;;;;;840.90;757.00;;;18.80;99.90;;;;;;5052376;28;20206;-78
2022/09/12 07:22:17;;;;;;;845.25;761.15;;;18.70;99.90;;;;;;5045173;28;20203;-77
2022/09/12 07:24:44;;;;;;;830.72;747.20;;;18.70;99.90;;;;;;5042513;28;20203;-79
2022/09/12 07:27:11;;;;;;;818.00;734.85;;;18.60;99.90;;;;;;5050484;28;20242;-78
2022/09/12 07:29:38;;;;;;;814.97;731.90;;;18.60;99.90;;;;;;5048960;28;20202;-79
2022/09/12 07:32:05;;;;;;;817.67;734.63;;;18.60;99.90;;;;;;5049069;28;20199;-78
2022/09/12 07:34:32;;;;;;;823.60;740.15;;;18.60;99.90;;;;;;5046355;28;20615;-80
2022/09/12 07:37:00;;;;;;;829.15;745.70;;;18.70;99.90;;;;;;5045824;28;20198;-78
2022/09/12 07:39:27;;;;;;;829.03;745.53;;;18.70;99.90;;;;;;5039496;28;20210;-77
2022/09/12 07:41:53;;;;;;;828.33;745.08;;;18.70;99.90;;;;;;5048466;28;20203;-77
2022/09/12 07:44:21;;;;;;;815.55;732.40;;;18.80;99.90;;;;;;5055374;28;20566;-78
2022/09/12 07:46:49;;;;;;;830.47;747.03;;;18.90;99.90;;;;;;5049658;28;20223;-80
2022/09/12 07:49:15;;;;;;;826.30;742.72;;;18.90;99.90;;;;;;5050583;28;20289;-77
2022/09/12 07:51:42;;;;;;;822.45;739.25;;;18.90;99.90;;;;;;5045445;28;20254;-78
2022/09/12 07:54:10;;;;;;;828.28;744.92;;;18.90;99.90;;;;;;5054645;28;20195;-78
2022/09/12 07:56:37;;;;;;;822.80;739.65;;;18.80;99.90;;;;;;5053044;28;20716;-78
2022/09/12 07:59:04;;;;;;;822.58;739.28;;;18.80;99.90;;;;;;5054419;28;20207;-80
2022/09/12 08:01:32;;;;;;;827.03;743.72;;;18.70;99.90;;;;;;5048509;28;20570;-78
2022/09/12 08:04:00;;;;;;;818.80;735.60;;;18.60;99.90;;;;;;5055537;28;20711;-77
2022/09/12 08:06:30;;;;;;;821.17;738.00;;;18.60;99.90;;;;;;5052588;28;21694;-77
2022/09/12 08:08:58;;;;;;;815.20;731.90;;;18.50;99.90;;;;;;5054774;28;21764;-78
2022/09/12 08:11:28;;;;;;;813.92;730.67;;;18.40;99.90;;;;;;5053477;28;20659;-79
2022/09/12 08:13:56;;;;;;;802.13;719.28;;;18.30;99.90;;;;;;5046203;28;20573;-78
2022/09/12 08:16:27;;;;;;;797.38;714.67;;;18.30;99.90;;;;;;5049450;28;20725;-77
2022/09/12 08:18:54;;;;;;;797.05;714.45;;;18.20;99.90;;;;;;5049863;28;20202;-77
2022/09/12 08:21:22;;;;;;;808.60;725.63;;;18.20;99.90;;;;;;5053880;28;20216;-79
2022/09/12 08:23:52;;;;;;;797.00;714.28;;;18.20;99.90;;;;;;5054836;28;20202;-77
2022/09/12 08:26:19;;;;;;;786.72;704.13;;;18.10;99.90;;;;;;5054055;28;22113;-79
2022/09/12 08:28:48;;;;;;;803.20;720.35;;;18.10;99.90;;;;;;5046244;28;20200;-79
2022/09/12 08:31:17;;;;;;;791.03;708.17;;;18.10;99.90;;;;;;5048443;28;20615;-77
2022/09/12 08:33:45;;;;;;;779.92;697.63;;;18.10;99.90;;;;;;5053441;28;20558;-77
2022/09/12 08:36:13;;;;;;;788.33;705.92;;;18.10;99.90;;;;;;5050189;28;20207;-76
2022/09/12 08:38:42;;;;;;;788.55;706.20;;;18.20;99.90;;;;;;5049698;28;20195;-77
2022/09/12 08:41:14;;;;;;;804.28;721.50;;;18.20;99.90;;;;;;5052330;28;20191;-77
2022/09/12 08:43:56;;;;;;;778.50;696.03;;;18.20;99.90;;;;;;5052251;28;20257;-79
2022/09/12 08:46:28;;;;;;;777.67;695.47;;;18.30;99.90;;;;;;5039784;28;20223;-77
2022/09/12 08:48:58;;;;;;;777.47;695.22;;;18.30;99.90;;;;;;5043517;28;20196;-78
2022/09/12 08:51:25;;;;;;;809.28;726.35;;;18.30;99.90;;;;;;5049469;28;20195;-77
2022/09/12 08:53:55;;;;;;;800.40;717.60;;;18.30;99.90;;;;;;5050077;28;20575;-77
2022/09/12 08:56:22;;;;;;;792.25;709.83;;;18.30;99.90;;;;;;5047776;28;20286;-78
2022/09/12 08:58:49;;;;;;;798.38;715.97;;;18.40;99.90;;;;;;5053669;28;20218;-78
2022/09/12 09:01:27;;;;;;;799.20;716.35;;;18.40;99.90;;;;;;5045798;28;20205;-79
2022/09/12 09:04:14;;;;;;;810.65;727.55;;;18.40;99.90;;;;;;5043109;28;20219;-78
2022/09/12 09:07:02;;;;;;;802.20;719.53;;;18.50;99.90;;;;;;5046802;28;20224;-78
2022/09/12 09:09:41;;;;;;;809.30;726.42;;;18.40;99.90;;;;;;5013079;28;20214;-78
2022/09/12 09:12:18;;;;;;;795.22;712.85;;;18.40;99.90;;;;;;5053589;28;20273;-78
2022/09/12 09:15:01;;;;;;;807.72;724.85;;;18.50;99.90;;;;;;5049685;28;20198;-78
2022/09/12 09:17:34;;;;;;;820.15;736.75;;;18.40;99.90;;;;;;5051819;28;20593;-78
2022/09/12 09:20:09;;;;;;;804.25;721.42;;;18.50;99.90;;;;;;5044672;28;20687;-79
2022/09/12 09:22:41;;;;;;;790.95;708.63;;;18.50;99.90;;;;;;5043305;28;20221;-82
2022/09/12 09:25:15;;;;;;;811.85;729.08;;;18.50;99.90;;;;;;5047931;28;20244;-78
2022/09/12 09:27:48;;;;;;;822.25;739.03;;;18.50;99.90;;;;;;5049192;28;20579;-79
2022/09/12 09:30:17;;;;;;;812.38;729.58;;;18.60;99.90;;;;;;5049642;28;20199;-78
2022/09/12 09:32:49;;;;;;;805.05;722.25;;;18.60;99.90;;;;;;5050107;28;20199;-77
2022/09/12 09:35:22;;;;;;;818.15;735.08;;;18.70;99.90;;;;;;5048185;28;20283;-77
2022/09/12 09:38:01;;;;;;;824.10;740.72;;;18.80;99.90;;;;;;5045143;28;20586;-77
2022/09/12 09:40:38;;;;;;;823.05;739.67;;;18.90;99.90;;;;;;5045941;28;20210;-78
2022/09/12 09:43:15;;;;;;;827.10;743.85;;;19.00;99.90;;;;;;5045234;28;20290;-78
2022/09/12 09:45:42;;;;;;;831.20;747.55;;;19.10;99.90;;;;;;5049190;28;20678;-80
2022/09/12 09:48:17;;;;;;;850.70;766.70;;;19.20;99.90;;;;;;5049746;28;20195;-81
2022/09/12 09:50:46;;;;;;;857.15;772.90;;;19.20;99.90;;;;;;5048064;28;20201;-77
2022/09/12 09:53:33;;;;;;;847.35;763.28;;;19.30;99.90;;;;;;5047478;28;20274;-79
2022/09/12 09:56:03;;;;;;;836.58;753.00;;;19.30;99.90;;;;;;5050091;28;20354;-77
2022/09/12 09:58:35;;;;;;;848.28;764.38;;;19.30;99.90;;;;;;5051132;28;20195;-80
2022/09/12 10:01:04;;;;;;;852.20;768.00;;;19.30;99.90;;;;;;5045028;28;20195;-78
2022/09/12 10:03:38;;;;;;;854.20;770.30;;;19.30;99.90;;;;;;5053292;28;20226;-78
2022/09/12 10:06:22;;;;;;;852.72;768.72;;;19.40;99.90;;;;;;5051181;28;20645;-80
2022/09/12 10:08:50;;;;;;;870.45;785.85;;;19.40;99.90;;;;;;5045985;28;20204;-81
2022/09/12 10:11:21;;;;;;;882.70;797.60;;;19.50;99.90;;;;;;5045518;28;20192;-77
2022/09/12 10:13:55;;;;;;;877.38;792.45;;;19.50;99.90;;;;;;5045947;28;20195;-77
2022/09/12 10:16:26;;;;;;;876.97;792.33;;;19.60;99.90;;;;;;5049065;28;20202;-76
2022/09/12 10:18:56;;;;;;;854.67;770.67;;;19.60;99.90;;;;;;5048089;28;20199;-77
2022/09/12 10:21:29;;;;;;;876.05;791.50;;;19.60;99.90;;;;;;5049436;28;20196;-79
2022/09/12 10:24:20;;;;;;;876.08;791.38;;;19.60;99.90;;;;;;5048459;28;20194;-77
2022/09/12 10:26:52;;;;;;;875.80;790.95;;;19.60;99.90;;;;;;5042361;28;20218;-77
2022/09/12 10:29:25;;;;;;;877.03;792.45;;;19.60;99.90;;;;;;5041680;28;20199;-78
2022/09/12 10:31:57;;;;;;;871.63;786.55;;;19.60;99.90;;;;;;5044158;28;20773;-76
2022/09/12 10:34:35;;;;;;;876.33;791.60;;;19.60;99.90;;;;;;5047215;28;20195;-79
2022/09/12 10:37:05;;;;;;;867.35;782.80;;;19.70;99.90;;;;;;5042406;28;20560;-80
2022/09/12 10:39:34;;;;;;;883.35;798.67;;;19.70;99.90;;;;;;5044567;28;20609;-76
2022/09/12 10:42:01;;;;;;;887.90;802.92;;;19.70;99.90;;;;;;5049779;28;20571;-77
2022/09/12 10:44:31;;;;;;;874.88;790.25;;;19.70;99.90;;;;;;5047177;28;20662;-76
2022/09/12 10:47:02;;;;;;;896.45;811.42;;;19.70;99.90;;;;;;5040166;28;20215;-78
2022/09/12 10:49:36;;;;;;;879.45;794.65;;;19.70;99.90;;;;;;5042839;28;20264;-78
2022/09/12 10:52:18;;;;;;;877.53;792.67;;;19.80;99.90;;;;;;5037241;28;20190;-78
2022/09/12 10:54:45;;;;;;;863.78;779.65;;;19.80;99.90;;;;;;5050216;28;20191;-78
2022/09/12 10:57:30;;;;;;;869.13;784.88;;;19.80;99.90;;;;;;5047465;28;20195;-78
2022/09/12 11:00:11;;;;;;;880.45;795.58;;;19.80;99.90;;;;;;5048084;28;20236;-80
2022/09/12 11:02:50;;;;;;;888.38;803.20;;;19.80;99.90;;;;;;5049005;28;20685;-78
2022/09/12 11:05:35;;;;;;;861.70;777.53;;;19.80;99.90;;;;;;5051871;28;20650;-77
2022/09/12 11:08:17;;;;;;;881.72;796.72;;;19.80;99.90;;;;;;5047821;28;20227;-78
2022/09/12 11:10:53;;;;;;;875.83;791.28;;;19.80;99.90;;;;;;5049199;28;20197;-78
2022/09/12 11:13:34;;;;;;;862.35;778.25;;;19.80;99.90;;;;;;5056487;28;20286;-80
2022/09/12 11:16:14;;;;;;;866.20;781.70;;;19.90;99.90;;;;;;5043731;28;20195;-80
2022/09/12 11:18:56;;;;;;;886.05;801.35;;;19.90;99.90;;;;;;5042179;28;20575;-77
2022/09/12 11:21:38;;;;;;;873.30;789.03;;;19.90;99.90;;;;;;5044334;28;20269;-77
2022/09/12 11:24:21;;;;;;;873.92;789.55;;;19.90;99.90;;;;;;5038391;28;20203;-78
2022/09/12 11:26:59;;;;;;;891.00;806.15;;;19.90;99.90;;;;;;5038893;28;20214;-77
2022/09/12 11:29:39;;;;;;;878.55;794.15;;;19.90;99.90;;;;;;5046524;28;20195;-78
2022/09/12 11:32:32;;;;;;;870.88;786.58;;;19.90;99.90;;;;;;5040078;28;20554;-79
2022/09/12 11:35:07;;;;;;;887.00;801.97;;;20.20;99.90;;;;;;5041787;28;20198;-78
2022/09/12 11:38:04;;;;;;;906.13;820.63;;;20.40;99.90;;;;;;5047472;28;20198;-78
2022/09/12 11:40:37;;;;;;;889.50;804.78;;;20.40;99.90;;;;;;5043712;28;20203;-77
2022/09/12 11:43:13;;;;;;;895.58;810.38;;;20.30;99.90;;;;;;5051456;28;20195;-78
2022/09/12 11:45:42;;;;;;;900.90;815.53;;;20.20;99.90;;;;;;5046294;28;20213;-79
2022/09/12 11:48:16;;;;;;;901.70;816.50;;;20.20;99.90;;;;;;5051187;28;20214;-78
2022/09/12 11:50:43;;;;;;;897.42;812.22;;;20.20;99.90;;;;;;5048822;28;20202;-79
2022/09/12 11:53:19;;;;;;;888.25;803.28;;;20.20;99.90;;;;;;5045774;28;20194;-77
2022/09/12 11:55:53;;;;;;;899.30;814.00;;;20.10;99.90;;;;;;5047826;28;20199;-77
2022/09/12 11:58:25;;;;;;;893.17;807.83;;;20.10;99.90;;;;;;5048154;28;20194;-77
2022/09/12 12:00:56;;;;;;;891.25;806.25;;;20.10;99.90;;;;;;5048037;28;20194;-77
2022/09/12 12:03:30;;;;;;;896.05;810.92;;;20.00;99.90;;;;;;5041323;28;20748;-79
2022/09/12 12:06:03;;;;;;;896.10;811.08;;;20.00;99.90;;;;;;5046053;28;20206;-78
2022/09/12 12:08:37;;;;;;;893.30;808.13;;;20.00;99.90;;;;;;5046148;28;20226;-77
2022/09/12 12:11:06;;;;;;;895.38;810.38;;;20.00;99.90;;;;;;5040258;28;20190;-79
2022/09/12 12:13:37;;;;;;;892.08;807.10;;;20.00;99.90;;;;;;5041735;28;20283;-79
2022/09/12 12:16:08;;;;;;;887.42;802.63;;;20.00;99.90;;;;;;5037211;28;20191;-77
2022/09/12 12:18:38;;;;;;;891.67;806.95;;;20.00;99.90;;;;;;5049894;28;20728;-78
2022/09/12 12:21:39;;;;;;;898.97;813.67;;;20.00;99.90;;;;;;5041925;28;20198;-79
2022/09/12 12:24:23;;;;;;;873.47;789.08;;;20.00;99.90;;;;;;5040104;28;20199;-78
2022/09/12 12:27:23;;;;;;;878.65;793.88;;;20.00;99.90;;;;;;5047046;28;20557;-77
2022/09/12 12:29:50;;;;;;;865.45;781.40;;;20.00;99.90;;;;;;5055116;28;20182;-77